createdAt,value
2023-02-13T20:02:06.157Z,101022.00
2023-02-13T20:03:09.915Z,101023.97
2023-02-13T20:04:13.561Z,101012.31
2023-02-13T20:05:17.609Z,101025.53
2023-02-13T20:06:22.804Z,100993.00
2023-02-13T20:07:26.400Z,101029.63
2023-02-13T20:08:30.086Z,101019.81
2023-02-13T20:09:33.850Z,101019.00
2023-02-13T20:10:37.507Z,101021.44
2023-02-13T20:11:41.813Z,101014.97
2023-02-13T20:12:45.470Z,100995.13
2023-02-13T20:13:53.250Z,101016.53
2023-02-13T20:14:56.914Z,101020.03
2023-02-13T20:16:00.564Z,101015.94
2023-02-13T20:17:06.297Z,100994.31
2023-02-13T20:18:09.977Z,100968.84
2023-02-13T20:19:14.158Z,101015.97
2023-02-13T20:20:18.078Z,101019.28
2023-02-13T20:21:21.704Z,100993.00
2023-02-13T20:22:25.378Z,101007.88
2023-02-13T20:23:29.067Z,101018.44
2023-02-13T20:24:32.947Z,101013.28
2023-02-13T20:25:37.039Z,101016.81
2023-02-13T20:26:40.854Z,101020.63
2023-02-13T20:27:44.443Z,100995.13
2023-02-13T20:28:48.375Z,101022.75
2023-02-13T20:29:58.889Z,101016.00
2023-02-13T20:31:11.185Z,100937.13
2023-02-13T20:32:16.815Z,101016.28
2023-02-13T20:33:20.491Z,100979.75
2023-02-13T20:34:24.094Z,101022.34
2023-02-13T20:35:27.882Z,101028.88
2023-02-13T20:36:32.488Z,101023.44
2023-02-13T20:37:39.428Z,101026.16
2023-02-13T20:38:43.453Z,101029.97
2023-02-13T20:39:49.520Z,101021.28
2023-02-13T20:40:53.101Z,101013.97
2023-02-13T20:41:56.726Z,101009.88
2023-02-13T20:43:03.352Z,101023.44
2023-02-13T20:44:09.597Z,100941.00
2023-02-13T20:45:30.700Z,101013.34
2023-02-13T20:46:37.237Z,101026.34
2023-02-13T20:47:42.452Z,101021.78
2023-02-13T20:48:47.664Z,101027.75
2023-02-13T20:49:51.394Z,101027.75
2023-02-13T20:51:05.057Z,101018.53
2023-02-13T20:52:08.756Z,100968.63
2023-02-13T20:54:38.709Z,100990.34
2023-02-13T20:55:42.389Z,101023.41
2023-02-13T20:56:50.818Z,101018.25
2023-02-13T20:58:16.169Z,101019.28
2023-02-13T20:59:19.815Z,101022.00
2023-02-13T21:00:23.800Z,101023.06
2023-02-13T21:01:29.232Z,101011.94
2023-02-13T21:02:33.315Z,101033.44
2023-02-13T21:03:38.603Z,101027.75
2023-02-13T21:04:42.236Z,100959.69
2023-02-13T21:05:45.868Z,101011.50
2023-02-13T21:06:49.767Z,101021.78
2023-02-13T21:07:53.418Z,101029.97
2023-02-13T21:09:05.463Z,101033.28
2023-02-13T21:10:09.728Z,101023.78
2023-02-13T21:11:13.760Z,100951.38
2023-02-13T21:12:17.463Z,101029.75
2023-02-13T21:13:21.243Z,101029.47
2023-02-13T21:14:24.903Z,101031.38
2023-02-13T21:15:29.908Z,101035.41
2023-02-13T21:16:35.992Z,101028.59
2023-02-13T21:17:39.718Z,101036.22
2023-02-13T21:18:45.442Z,101036.75
2023-02-13T21:19:49.295Z,101035.66
2023-02-13T21:20:53.004Z,101008.31
2023-02-13T21:21:56.736Z,101031.00
2023-02-13T21:23:00.490Z,101036.44
2023-02-13T21:24:08.067Z,101038.34
2023-02-13T21:25:12.175Z,101039.69
2023-02-13T21:26:17.528Z,101047.03
2023-02-13T21:27:21.230Z,101041.59
2023-02-13T21:28:25.105Z,101046.44
2023-02-13T21:29:28.885Z,101037.78
2023-02-13T21:30:32.788Z,101017.78
2023-02-13T21:31:38.731Z,101039.41
2023-02-13T21:32:42.416Z,101037.50
2023-02-13T21:33:47.903Z,101015.84
2023-02-13T21:34:51.669Z,101039.41
2023-02-13T21:36:01.961Z,100981.91
2023-02-13T21:37:05.706Z,101036.13
2023-02-13T21:38:09.258Z,101042.91
2023-02-13T21:39:13.825Z,101042.13
2023-02-13T21:40:17.725Z,101039.97
2023-02-13T21:41:21.540Z,101042.41
2023-02-13T21:42:25.194Z,101041.84
2023-02-13T21:43:28.935Z,101035.34
2023-02-13T21:44:32.584Z,101040.75
2023-02-13T21:46:15.243Z,101048.34
2023-02-13T21:47:09.051Z,101044.84
2023-02-13T21:49:31.281Z,101048.06
2023-02-13T21:50:34.869Z,101028.25
2023-02-13T21:51:38.483Z,101048.88
2023-02-13T21:53:03.855Z,100962.69
2023-02-13T21:54:07.696Z,101051.16
2023-02-13T21:55:11.373Z,101048.94
2023-02-13T21:56:16.604Z,101010.75
2023-02-13T21:57:20.302Z,101052.47
2023-02-13T21:58:23.893Z,101057.09
2023-02-13T21:59:28.022Z,101044.03
2023-02-13T22:00:31.669Z,101061.19
2023-02-13T22:01:36.882Z,101032.94
2023-02-13T22:02:40.902Z,101041.38
2023-02-13T22:03:44.904Z,101032.19
2023-02-13T22:04:50.280Z,101060.09
2023-02-13T22:05:54.013Z,101037.84
2023-02-13T22:06:57.758Z,100991.53
2023-02-13T22:08:01.420Z,101053.91
2023-02-13T22:09:06.318Z,101070.72
2023-02-13T22:10:11.012Z,101062.28
2023-02-13T22:11:14.868Z,101025.44
2023-02-13T22:12:18.574Z,101006.69
2023-02-13T22:13:22.154Z,101070.22
2023-02-13T22:14:25.743Z,101063.69
2023-02-13T22:15:29.550Z,101067.50
2023-02-13T22:16:34.480Z,101016.50
2023-02-13T22:17:38.164Z,101070.78
2023-02-13T22:18:43.942Z,101072.69
2023-02-13T22:19:49.666Z,101071.34
2023-02-13T22:20:53.345Z,101069.44
2023-02-13T22:21:56.928Z,101073.50
2023-02-13T22:23:00.538Z,101060.97
2023-02-13T22:24:04.735Z,101078.38
2023-02-13T22:25:09.294Z,101073.50
2023-02-13T22:26:16.899Z,101017.09
2023-02-13T22:27:20.511Z,101079.72
2023-02-13T22:28:24.098Z,101065.66
2023-02-13T22:29:27.772Z,101010.03
2023-02-13T22:30:31.461Z,101080.03
2023-02-13T22:31:35.340Z,101090.38
2023-02-13T22:32:40.458Z,101090.06
2023-02-13T22:33:47.425Z,101090.66
2023-02-13T22:34:55.088Z,101086.03
2023-02-13T22:36:00.715Z,101085.50
2023-02-13T22:37:04.417Z,101078.75
2023-02-13T22:38:08.368Z,101100.97
2023-02-13T22:39:13.045Z,101103.41
2023-02-13T22:40:16.790Z,101105.03
2023-02-13T22:41:22.053Z,101112.91
2023-02-13T22:42:25.752Z,101112.38
2023-02-13T22:43:29.328Z,101110.47
2023-02-13T22:44:33.046Z,101109.38
2023-02-13T22:45:37.377Z,101110.47
2023-02-13T22:46:41.089Z,101117.81
2023-02-13T22:47:44.847Z,101103.41
2023-02-13T22:48:48.989Z,101115.66
2023-02-13T22:49:54.301Z,101118.66
2023-02-13T22:50:58.218Z,101117.81
2023-02-13T22:52:02.274Z,101108.63
2023-02-13T22:53:05.867Z,101110.53
2023-02-13T22:54:11.181Z,101103.72
2023-02-13T22:55:14.797Z,101112.44
2023-02-13T22:56:18.479Z,101113.53
2023-02-13T22:57:22.152Z,101101.56
2023-02-13T22:58:26.445Z,101115.97
2023-02-13T22:59:30.144Z,101114.88
2023-02-13T23:00:33.779Z,101035.91
2023-02-13T23:01:37.441Z,101108.34
2023-02-13T23:02:41.252Z,101116.25
2023-02-13T23:03:45.542Z,101114.09
2023-02-13T23:04:49.268Z,101115.47
2023-02-13T23:05:54.760Z,101122.78
2023-02-13T23:06:58.932Z,101110.03
2023-02-13T23:08:02.727Z,101116.84
2023-02-13T23:09:06.430Z,101121.47
2023-02-13T23:10:10.806Z,101107.09
2023-02-13T23:11:17.219Z,101124.72
2023-02-13T23:12:21.004Z,101111.94
2023-02-13T23:13:24.665Z,101071.50
2023-02-13T23:14:28.305Z,101125.28
2023-02-13T23:15:33.415Z,101117.66
2023-02-13T23:16:37.968Z,101122.00
2023-02-13T23:17:44.242Z,101111.41
2023-02-13T23:18:52.285Z,101114.16
2023-02-13T23:19:55.955Z,101123.66
2023-02-13T23:21:05.936Z,101075.34
2023-02-13T23:22:09.530Z,101031.69
2023-02-13T23:23:13.419Z,101089.72
2023-02-13T23:24:17.211Z,101132.41
2023-02-13T23:25:22.058Z,101101.94
2023-02-13T23:26:25.677Z,101124.78
2023-02-13T23:27:29.606Z,101123.69
2023-02-13T23:28:33.334Z,101111.72
2023-02-13T23:29:37.112Z,101076.72
2023-02-13T23:30:41.539Z,101122.06
2023-02-13T23:31:45.529Z,101110.63
2023-02-13T23:32:49.227Z,101132.13
2023-02-13T23:33:52.888Z,101108.47
2023-02-13T23:34:56.680Z,101132.13
2023-02-13T23:36:01.971Z,101115.78
2023-02-13T23:37:05.540Z,101113.63
2023-02-13T23:38:09.104Z,101129.13
2023-02-13T23:39:12.797Z,101123.69
2023-02-13T23:40:18.044Z,101139.75
2023-02-13T23:41:21.807Z,101136.47
2023-02-13T23:42:25.490Z,101067.22
2023-02-13T23:43:29.160Z,101137.03
2023-02-13T23:44:32.859Z,101142.19
2023-02-13T23:45:36.487Z,101097.38
2023-02-13T23:46:40.171Z,101103.59
2023-02-13T23:47:43.788Z,101106.31
2023-02-13T23:48:47.507Z,101147.06
2023-02-13T23:49:51.260Z,101148.13
2023-02-13T23:50:54.886Z,101143.22
2023-02-13T23:52:00.167Z,101151.94
2023-02-13T23:53:03.798Z,101107.41
2023-02-13T23:54:07.561Z,101147.88
2023-02-13T23:55:11.216Z,101155.53
2023-02-13T23:56:14.827Z,101149.25
2023-02-13T23:57:18.591Z,101126.69
2023-02-13T23:58:22.273Z,101153.06
2023-02-13T23:59:26.536Z,101158.78
